sensor_id;sensor_type;location;lat;lon;timestamp;pressure;altitude;pressure_sealevel;temperature
12061;BMP180;6091;51.432;6.880;2022-10-31T00:01:41;101325.00;;;26.70
12061;BMP180;6091;51.432;6.880;2022-10-31T00:04:08;101322.00;;;26.70
12061;BMP180;6091;51.432;6.880;2022-10-31T00:06:38;101329.00;;;26.70
12061;BMP180;6091;51.432;6.880;2022-10-31T00:09:05;101317.00;;;26.70
12061;BMP180;6091;51.432;6.880;2022-10-31T00:11:33;101314.00;;;26.70
12061;BMP180;6091;51.432;6.880;2022-10-31T00:14:01;101316.00;;;26.70
12061;BMP180;6091;51.432;6.880;2022-10-31T00:16:29;101324.00;;;26.70
12061;BMP180;6091;51.432;6.880;2022-10-31T00:19:03;101320.00;;;26.70
12061;BMP180;6091;51.432;6.880;2022-10-31T00:21:31;101321.00;;;26.70
12061;BMP180;6091;51.432;6.880;2022-10-31T00:24:00;101316.00;;;26.70
12061;BMP180;6091;51.432;6.880;2022-10-31T00:26:29;101305.00;;;26.70
12061;BMP180;6091;51.432;6.880;2022-10-31T00:28:58;101324.00;;;26.70
12061;BMP180;6091;51.432;6.880;2022-10-31T00:31:26;101316.00;;;26.70
12061;BMP180;6091;51.432;6.880;2022-10-31T00:33:53;101324.00;;;26.70
12061;BMP180;6091;51.432;6.880;2022-10-31T00:36:20;101322.00;;;26.70
12061;BMP180;6091;51.432;6.880;2022-10-31T00:38:49;101327.00;;;26.70
12061;BMP180;6091;51.432;6.880;2022-10-31T00:41:22;101308.00;;;26.70
12061;BMP180;6091;51.432;6.880;2022-10-31T00:43:49;101331.00;;;26.70
12061;BMP180;6091;51.432;6.880;2022-10-31T00:46:17;101326.00;;;26.70
12061;BMP180;6091;51.432;6.880;2022-10-31T00:48:44;101318.00;;;26.70
12061;BMP180;6091;51.432;6.880;2022-10-31T00:51:16;101321.00;;;26.60
12061;BMP180;6091;51.432;6.880;2022-10-31T00:53:46;101340.00;;;26.60
12061;BMP180;6091;51.432;6.880;2022-10-31T00:56:13;101331.00;;;26.60
12061;BMP180;6091;51.432;6.880;2022-10-31T00:58:40;101319.00;;;26.60
12061;BMP180;6091;51.432;6.880;2022-10-31T01:01:07;101318.00;;;26.60
12061;BMP180;6091;51.432;6.880;2022-10-31T01:03:35;101323.00;;;26.60
12061;BMP180;6091;51.432;6.880;2022-10-31T01:06:09;101330.00;;;26.60
12061;BMP180;6091;51.432;6.880;2022-10-31T01:08:38;101328.00;;;26.60
12061;BMP180;6091;51.432;6.880;2022-10-31T01:11:10;101317.00;;;26.60
12061;BMP180;6091;51.432;6.880;2022-10-31T01:13:38;101315.00;;;26.60
12061;BMP180;6091;51.432;6.880;2022-10-31T01:16:08;101314.00;;;26.60
12061;BMP180;6091;51.432;6.880;2022-10-31T01:18:36;101320.00;;;26.60
12061;BMP180;6091;51.432;6.880;2022-10-31T01:23:36;101336.00;;;26.60
12061;BMP180;6091;51.432;6.880;2022-10-31T01:26:15;101337.00;;;26.60
12061;BMP180;6091;51.432;6.880;2022-10-31T01:28:51;101334.00;;;26.60
12061;BMP180;6091;51.432;6.880;2022-10-31T01:31:23;101335.00;;;26.60
12061;BMP180;6091;51.432;6.880;2022-10-31T01:33:51;101336.00;;;26.60
12061;BMP180;6091;51.432;6.880;2022-10-31T01:36:31;101329.00;;;26.60
12061;BMP180;6091;51.432;6.880;2022-10-31T01:39:04;101327.00;;;26.60
12061;BMP180;6091;51.432;6.880;2022-10-31T01:41:36;101320.00;;;26.60
12061;BMP180;6091;51.432;6.880;2022-10-31T01:47:11;101321.00;;;26.50
12061;BMP180;6091;51.432;6.880;2022-10-31T01:49:51;101318.00;;;26.50
12061;BMP180;6091;51.432;6.880;2022-10-31T01:52:32;101310.00;;;26.50
12061;BMP180;6091;51.432;6.880;2022-10-31T01:55:21;101323.00;;;26.50
12061;BMP180;6091;51.432;6.880;2022-10-31T01:57:59;101315.00;;;26.50
12061;BMP180;6091;51.432;6.880;2022-10-31T02:00:28;101299.00;;;26.50
12061;BMP180;6091;51.432;6.880;2022-10-31T02:02:55;101306.00;;;26.50
12061;BMP180;6091;51.432;6.880;2022-10-31T02:05:28;101301.00;;;26.50
12061;BMP180;6091;51.432;6.880;2022-10-31T02:08:01;101307.00;;;26.50
12061;BMP180;6091;51.432;6.880;2022-10-31T02:10:36;101306.00;;;26.50
12061;BMP180;6091;51.432;6.880;2022-10-31T02:13:07;101303.00;;;26.50
12061;BMP180;6091;51.432;6.880;2022-10-31T02:15:38;101306.00;;;26.50
12061;BMP180;6091;51.432;6.880;2022-10-31T02:18:07;101302.00;;;26.50
12061;BMP180;6091;51.432;6.880;2022-10-31T02:21:19;101310.00;;;26.40
12061;BMP180;6091;51.432;6.880;2022-10-31T02:27:28;101307.00;;;26.40
12061;BMP180;6091;51.432;6.880;2022-10-31T02:30:14;101313.00;;;26.40
12061;BMP180;6091;51.432;6.880;2022-10-31T02:35:55;101310.00;;;26.40
12061;BMP180;6091;51.432;6.880;2022-10-31T02:43:09;101307.00;;;26.30
12061;BMP180;6091;51.432;6.880;2022-10-31T02:46:04;101299.00;;;26.30
12061;BMP180;6091;51.432;6.880;2022-10-31T02:48:37;101302.00;;;26.30
12061;BMP180;6091;51.432;6.880;2022-10-31T02:51:07;101294.00;;;26.30
12061;BMP180;6091;51.432;6.880;2022-10-31T02:53:37;101297.00;;;26.30
12061;BMP180;6091;51.432;6.880;2022-10-31T02:56:20;101310.00;;;26.30
12061;BMP180;6091;51.432;6.880;2022-10-31T02:58:56;101312.00;;;26.30
12061;BMP180;6091;51.432;6.880;2022-10-31T03:07:39;101303.00;;;26.20
12061;BMP180;6091;51.432;6.880;2022-10-31T03:13:11;101306.00;;;26.20
12061;BMP180;6091;51.432;6.880;2022-10-31T03:15:49;101308.00;;;26.20
12061;BMP180;6091;51.432;6.880;2022-10-31T03:18:38;101303.00;;;26.20
12061;BMP180;6091;51.432;6.880;2022-10-31T03:21:25;101301.00;;;26.20
12061;BMP180;6091;51.432;6.880;2022-10-31T03:23:57;101307.00;;;26.20
12061;BMP180;6091;51.432;6.880;2022-10-31T03:26:26;101308.00;;;26.20
12061;BMP180;6091;51.432;6.880;2022-10-31T03:29:05;101313.00;;;26.20
12061;BMP180;6091;51.432;6.880;2022-10-31T03:31:49;101307.00;;;26.20
12061;BMP180;6091;51.432;6.880;2022-10-31T03:34:32;101302.00;;;26.20
12061;BMP180;6091;51.432;6.880;2022-10-31T03:37:04;101302.00;;;26.20
12061;BMP180;6091;51.432;6.880;2022-10-31T03:39:36;101306.00;;;26.20
12061;BMP180;6091;51.432;6.880;2022-10-31T03:42:14;101304.00;;;26.20
12061;BMP180;6091;51.432;6.880;2022-10-31T03:44:48;101307.00;;;26.20
12061;BMP180;6091;51.432;6.880;2022-10-31T03:47:17;101308.00;;;26.10
12061;BMP180;6091;51.432;6.880;2022-10-31T03:49:45;101306.00;;;26.10
12061;BMP180;6091;51.432;6.880;2022-10-31T03:52:24;101308.00;;;26.10
12061;BMP180;6091;51.432;6.880;2022-10-31T03:55:28;101308.00;;;26.10
12061;BMP180;6091;51.432;6.880;2022-10-31T03:58:08;101306.00;;;26.10
12061;BMP180;6091;51.432;6.880;2022-10-31T04:00:41;101310.00;;;26.10
12061;BMP180;6091;51.432;6.880;2022-10-31T04:03:31;101309.00;;;26.10
12061;BMP180;6091;51.432;6.880;2022-10-31T04:06:05;101300.00;;;26.10
12061;BMP180;6091;51.432;6.880;2022-10-31T04:08:43;101308.00;;;26.10
12061;BMP180;6091;51.432;6.880;2022-10-31T04:11:13;101308.00;;;26.10
12061;BMP180;6091;51.432;6.880;2022-10-31T04:13:45;101306.00;;;26.10
12061;BMP180;6091;51.432;6.880;2022-10-31T04:16:15;101308.00;;;26.10
12061;BMP180;6091;51.432;6.880;2022-10-31T04:18:46;101300.00;;;26.10
12061;BMP180;6091;51.432;6.880;2022-10-31T04:21:16;101295.00;;;26.10
12061;BMP180;6091;51.432;6.880;2022-10-31T04:23:44;101289.00;;;26.10
12061;BMP180;6091;51.432;6.880;2022-10-31T04:26:13;101290.00;;;26.10
12061;BMP180;6091;51.432;6.880;2022-10-31T04:28:40;101254.00;;;26.10
12061;BMP180;6091;51.432;6.880;2022-10-31T04:31:14;101292.00;;;26.10
12061;BMP180;6091;51.432;6.880;2022-10-31T04:33:41;101293.00;;;26.10
12061;BMP180;6091;51.432;6.880;2022-10-31T04:36:09;101286.00;;;26.00
12061;BMP180;6091;51.432;6.880;2022-10-31T04:38:38;101279.00;;;26.00
12061;BMP180;6091;51.432;6.880;2022-10-31T04:41:06;101280.00;;;26.00
12061;BMP180;6091;51.432;6.880;2022-10-31T04:43:37;101278.00;;;26.00
12061;BMP180;6091;51.432;6.880;2022-10-31T04:46:05;101291.00;;;26.00
12061;BMP180;6091;51.432;6.880;2022-10-31T04:48:32;101285.00;;;26.00
12061;BMP180;6091;51.432;6.880;2022-10-31T04:51:06;101287.00;;;26.00
12061;BMP180;6091;51.432;6.880;2022-10-31T04:53:36;101283.00;;;26.00
12061;BMP180;6091;51.432;6.880;2022-10-31T04:56:03;101281.00;;;26.00
12061;BMP180;6091;51.432;6.880;2022-10-31T04:58:31;101293.00;;;26.00
12061;BMP180;6091;51.432;6.880;2022-10-31T05:01:05;101289.00;;;26.00
12061;BMP180;6091;51.432;6.880;2022-10-31T05:03:35;101287.00;;;26.00
12061;BMP180;6091;51.432;6.880;2022-10-31T05:06:03;101282.00;;;26.00
12061;BMP180;6091;51.432;6.880;2022-10-31T05:08:30;101280.00;;;26.00
12061;BMP180;6091;51.432;6.880;2022-10-31T05:11:05;101275.00;;;26.00
12061;BMP180;6091;51.432;6.880;2022-10-31T05:13:32;101261.00;;;26.00
12061;BMP180;6091;51.432;6.880;2022-10-31T05:16:03;101270.00;;;26.00
12061;BMP180;6091;51.432;6.880;2022-10-31T05:18:32;101275.00;;;26.00
12061;BMP180;6091;51.432;6.880;2022-10-31T05:20:59;101266.00;;;26.00
12061;BMP180;6091;51.432;6.880;2022-10-31T05:23:27;101269.00;;;25.90
12061;BMP180;6091;51.432;6.880;2022-10-31T05:25:54;101262.00;;;26.00
12061;BMP180;6091;51.432;6.880;2022-10-31T05:28:21;101251.00;;;25.90
12061;BMP180;6091;51.432;6.880;2022-10-31T05:30:51;101253.00;;;25.90
12061;BMP180;6091;51.432;6.880;2022-10-31T05:33:18;101245.00;;;25.90
12061;BMP180;6091;51.432;6.880;2022-10-31T05:35:45;101252.00;;;25.90
12061;BMP180;6091;51.432;6.880;2022-10-31T05:38:12;101253.00;;;25.90
12061;BMP180;6091;51.432;6.880;2022-10-31T05:40:40;101260.00;;;25.90
12061;BMP180;6091;51.432;6.880;2022-10-31T05:43:07;101262.00;;;25.90
12061;BMP180;6091;51.432;6.880;2022-10-31T05:45:35;101259.00;;;25.90
12061;BMP180;6091;51.432;6.880;2022-10-31T05:48:03;101267.00;;;25.90
12061;BMP180;6091;51.432;6.880;2022-10-31T05:50:37;101265.00;;;25.90
12061;BMP180;6091;51.432;6.880;2022-10-31T05:53:09;101264.00;;;25.90
12061;BMP180;6091;51.432;6.880;2022-10-31T05:55:36;101265.00;;;25.90
12061;BMP180;6091;51.432;6.880;2022-10-31T06:02:14;101244.00;;;25.80
12061;BMP180;6091;51.432;6.880;2022-10-31T06:04:41;101243.00;;;25.80
12061;BMP180;6091;51.432;6.880;2022-10-31T06:07:08;101251.00;;;25.90
12061;BMP180;6091;51.432;6.880;2022-10-31T06:09:35;101253.00;;;25.80
12061;BMP180;6091;51.432;6.880;2022-10-31T06:12:05;101253.00;;;25.90
12061;BMP180;6091;51.432;6.880;2022-10-31T06:14:32;101250.00;;;25.80
12061;BMP180;6091;51.432;6.880;2022-10-31T06:16:59;101256.00;;;25.90
12061;BMP180;6091;51.432;6.880;2022-10-31T06:19:27;101253.00;;;25.80
12061;BMP180;6091;51.432;6.880;2022-10-31T06:21:54;101243.00;;;25.80
12061;BMP180;6091;51.432;6.880;2022-10-31T06:24:22;101245.00;;;25.80
12061;BMP180;6091;51.432;6.880;2022-10-31T06:26:55;101240.00;;;25.90
12061;BMP180;6091;51.432;6.880;2022-10-31T06:29:23;101252.00;;;25.80
12061;BMP180;6091;51.432;6.880;2022-10-31T06:31:54;101252.00;;;25.80
12061;BMP180;6091;51.432;6.880;2022-10-31T06:34:21;101249.00;;;25.80
12061;BMP180;6091;51.432;6.880;2022-10-31T06:36:48;101256.00;;;25.80
12061;BMP180;6091;51.432;6.880;2022-10-31T06:39:19;101258.00;;;25.80
12061;BMP180;6091;51.432;6.880;2022-10-31T06:41:48;101249.00;;;25.80
12061;BMP180;6091;51.432;6.880;2022-10-31T06:44:17;101255.00;;;25.80
12061;BMP180;6091;51.432;6.880;2022-10-31T06:46:50;101254.00;;;25.80
12061;BMP180;6091;51.432;6.880;2022-10-31T06:49:20;101257.00;;;25.80
12061;BMP180;6091;51.432;6.880;2022-10-31T06:51:49;101249.00;;;25.80
12061;BMP180;6091;51.432;6.880;2022-10-31T06:54:17;101259.00;;;25.90
12061;BMP180;6091;51.432;6.880;2022-10-31T06:56:56;101264.00;;;25.90
12061;BMP180;6091;51.432;6.880;2022-10-31T06:59:23;101275.00;;;25.90
12061;BMP180;6091;51.432;6.880;2022-10-31T07:01:51;101254.00;;;25.90
12061;BMP180;6091;51.432;6.880;2022-10-31T07:04:18;101269.00;;;25.90
12061;BMP180;6091;51.432;6.880;2022-10-31T07:06:50;101271.00;;;26.00
12061;BMP180;6091;51.432;6.880;2022-10-31T07:09:18;101272.00;;;26.00
12061;BMP180;6091;51.432;6.880;2022-10-31T07:11:45;101271.00;;;26.00
12061;BMP180;6091;51.432;6.880;2022-10-31T07:14:14;101265.00;;;26.00
12061;BMP180;6091;51.432;6.880;2022-10-31T07:16:48;101275.00;;;26.00
12061;BMP180;6091;51.432;6.880;2022-10-31T07:19:16;101270.00;;;26.00
12061;BMP180;6091;51.432;6.880;2022-10-31T07:21:44;101270.00;;;26.10
12061;BMP180;6091;51.432;6.880;2022-10-31T07:24:11;101279.00;;;26.10
12061;BMP180;6091;51.432;6.880;2022-10-31T07:26:41;101283.00;;;26.10
12061;BMP180;6091;51.432;6.880;2022-10-31T07:29:09;101274.00;;;26.10
12061;BMP180;6091;51.432;6.880;2022-10-31T07:31:36;101274.00;;;26.10
12061;BMP180;6091;51.432;6.880;2022-10-31T07:34:03;101271.00;;;26.10
12061;BMP180;6091;51.432;6.880;2022-10-31T07:36:33;101276.00;;;26.10
12061;BMP180;6091;51.432;6.880;2022-10-31T07:39:00;101283.00;;;26.10
12061;BMP180;6091;51.432;6.880;2022-10-31T07:41:29;101270.00;;;26.20
12061;BMP180;6091;51.432;6.880;2022-10-31T07:44:03;101263.00;;;26.20
12061;BMP180;6091;51.432;6.880;2022-10-31T07:46:31;101275.00;;;26.20
12061;BMP180;6091;51.432;6.880;2022-10-31T07:48:58;101269.00;;;26.20
12061;BMP180;6091;51.432;6.880;2022-10-31T07:51:26;101261.00;;;26.20
12061;BMP180;6091;51.432;6.880;2022-10-31T07:53:53;101270.00;;;26.20
12061;BMP180;6091;51.432;6.880;2022-10-31T07:56:21;101271.00;;;26.20
12061;BMP180;6091;51.432;6.880;2022-10-31T07:58:51;101280.00;;;26.30
12061;BMP180;6091;51.432;6.880;2022-10-31T08:01:18;101290.00;;;26.20
12061;BMP180;6091;51.432;6.880;2022-10-31T08:03:45;101284.00;;;26.20
12061;BMP180;6091;51.432;6.880;2022-10-31T08:06:12;101282.00;;;26.20
12061;BMP180;6091;51.432;6.880;2022-10-31T08:08:49;101288.00;;;26.30
12061;BMP180;6091;51.432;6.880;2022-10-31T08:11:19;101256.00;;;26.30
12061;BMP180;6091;51.432;6.880;2022-10-31T08:13:47;101282.00;;;26.30
12061;BMP180;6091;51.432;6.880;2022-10-31T08:16:17;101294.00;;;26.30
12061;BMP180;6091;51.432;6.880;2022-10-31T08:18:44;101286.00;;;26.30
12061;BMP180;6091;51.432;6.880;2022-10-31T08:21:12;101283.00;;;26.30
12061;BMP180;6091;51.432;6.880;2022-10-31T08:23:42;101287.00;;;26.30
12061;BMP180;6091;51.432;6.880;2022-10-31T08:26:09;101284.00;;;26.30
12061;BMP180;6091;51.432;6.880;2022-10-31T08:28:37;101288.00;;;26.30
12061;BMP180;6091;51.432;6.880;2022-10-31T08:31:04;101287.00;;;26.30
12061;BMP180;6091;51.432;6.880;2022-10-31T08:33:32;101283.00;;;26.40
12061;BMP180;6091;51.432;6.880;2022-10-31T08:36:00;101291.00;;;26.40
12061;BMP180;6091;51.432;6.880;2022-10-31T08:38:36;101281.00;;;26.40
12061;BMP180;6091;51.432;6.880;2022-10-31T08:41:03;101282.00;;;26.40
12061;BMP180;6091;51.432;6.880;2022-10-31T08:43:31;101280.00;;;26.40
12061;BMP180;6091;51.432;6.880;2022-10-31T08:45:58;101273.00;;;26.50
12061;BMP180;6091;51.432;6.880;2022-10-31T08:48:25;101276.00;;;26.50
12061;BMP180;6091;51.432;6.880;2022-10-31T08:50:57;101266.00;;;26.50
12061;BMP180;6091;51.432;6.880;2022-10-31T08:53:31;101263.00;;;26.50
12061;BMP180;6091;51.432;6.880;2022-10-31T08:56:01;101254.00;;;26.60
12061;BMP180;6091;51.432;6.880;2022-10-31T08:58:28;101249.00;;;26.60
12061;BMP180;6091;51.432;6.880;2022-10-31T09:00:58;101258.00;;;26.60
12061;BMP180;6091;51.432;6.880;2022-10-31T09:03:31;101240.00;;;26.70
12061;BMP180;6091;51.432;6.880;2022-10-31T09:06:01;101256.00;;;26.70
12061;BMP180;6091;51.432;6.880;2022-10-31T09:08:31;101254.00;;;26.70
12061;BMP180;6091;51.432;6.880;2022-10-31T09:10:59;101255.00;;;26.80
12061;BMP180;6091;51.432;6.880;2022-10-31T09:13:26;101255.00;;;26.80
12061;BMP180;6091;51.432;6.880;2022-10-31T09:15:58;101247.00;;;26.80
12061;BMP180;6091;51.432;6.880;2022-10-31T09:18:31;101250.00;;;26.80
12061;BMP180;6091;51.432;6.880;2022-10-31T09:21:00;101245.00;;;26.80
12061;BMP180;6091;51.432;6.880;2022-10-31T09:23:33;101241.00;;;26.90
12061;BMP180;6091;51.432;6.880;2022-10-31T09:26:03;101226.00;;;26.90
12061;BMP180;6091;51.432;6.880;2022-10-31T09:28:31;101236.00;;;26.90
12061;BMP180;6091;51.432;6.880;2022-10-31T09:31:02;101231.00;;;26.90
12061;BMP180;6091;51.432;6.880;2022-10-31T09:33:29;101231.00;;;27.00
12061;BMP180;6091;51.432;6.880;2022-10-31T09:35:58;101219.00;;;27.00
12061;BMP180;6091;51.432;6.880;2022-10-31T09:38:37;101215.00;;;27.00
12061;BMP180;6091;51.432;6.880;2022-10-31T09:41:49;101219.00;;;27.00
12061;BMP180;6091;51.432;6.880;2022-10-31T09:50:50;101198.00;;;27.00
12061;BMP180;6091;51.432;6.880;2022-10-31T09:53:42;101203.00;;;27.00
12061;BMP180;6091;51.432;6.880;2022-10-31T09:56:24;101195.00;;;27.10
12061;BMP180;6091;51.432;6.880;2022-10-31T09:59:16;101196.00;;;27.10
12061;BMP180;6091;51.432;6.880;2022-10-31T10:02:14;101182.00;;;27.10
12061;BMP180;6091;51.432;6.880;2022-10-31T10:04:56;101183.00;;;27.20
12061;BMP180;6091;51.432;6.880;2022-10-31T10:10:55;101175.00;;;27.20
12061;BMP180;6091;51.432;6.880;2022-10-31T10:13:37;101180.00;;;27.30
12061;BMP180;6091;51.432;6.880;2022-10-31T10:25:15;101181.00;;;27.50
12061;BMP180;6091;51.432;6.880;2022-10-31T10:28:22;101182.00;;;27.50
12061;BMP180;6091;51.432;6.880;2022-10-31T10:31:01;101174.00;;;27.60
12061;BMP180;6091;51.432;6.880;2022-10-31T10:36:50;101167.00;;;27.60
12061;BMP180;6091;51.432;6.880;2022-10-31T10:39:44;101154.00;;;27.60
12061;BMP180;6091;51.432;6.880;2022-10-31T10:42:15;101151.00;;;27.70
12061;BMP180;6091;51.432;6.880;2022-10-31T10:45:16;101147.00;;;27.70
12061;BMP180;6091;51.432;6.880;2022-10-31T10:48:10;101142.00;;;27.70
12061;BMP180;6091;51.432;6.880;2022-10-31T10:50:48;101143.00;;;27.70
12061;BMP180;6091;51.432;6.880;2022-10-31T10:54:12;101136.00;;;27.70
12061;BMP180;6091;51.432;6.880;2022-10-31T10:59:50;101130.00;;;27.70
12061;BMP180;6091;51.432;6.880;2022-10-31T11:02:25;101126.00;;;27.70
12061;BMP180;6091;51.432;6.880;2022-10-31T11:04:59;101110.00;;;27.70
12061;BMP180;6091;51.432;6.880;2022-10-31T11:07:39;101095.00;;;27.70
12061;BMP180;6091;51.432;6.880;2022-10-31T11:10:12;101091.00;;;27.70
12061;BMP180;6091;51.432;6.880;2022-10-31T11:12:58;101085.00;;;27.70
12061;BMP180;6091;51.432;6.880;2022-10-31T11:15:28;101076.00;;;27.70
12061;BMP180;6091;51.432;6.880;2022-10-31T11:17:57;101073.00;;;27.70
12061;BMP180;6091;51.432;6.880;2022-10-31T11:20:35;101080.00;;;27.70
12061;BMP180;6091;51.432;6.880;2022-10-31T11:23:26;101078.00;;;27.70
12061;BMP180;6091;51.432;6.880;2022-10-31T11:25:59;101076.00;;;27.70
12061;BMP180;6091;51.432;6.880;2022-10-31T11:28:32;101068.00;;;27.70
12061;BMP180;6091;51.432;6.880;2022-10-31T11:31:13;101076.00;;;27.70
12061;BMP180;6091;51.432;6.880;2022-10-31T11:33:48;101073.00;;;27.70
12061;BMP180;6091;51.432;6.880;2022-10-31T11:36:24;101075.00;;;27.70
12061;BMP180;6091;51.432;6.880;2022-10-31T11:38:53;101064.00;;;27.70
12061;BMP180;6091;51.432;6.880;2022-10-31T11:41:36;101058.00;;;27.70
12061;BMP180;6091;51.432;6.880;2022-10-31T11:44:18;101056.00;;;27.70
12061;BMP180;6091;51.432;6.880;2022-10-31T11:46:52;101045.00;;;27.70
12061;BMP180;6091;51.432;6.880;2022-10-31T11:49:40;101040.00;;;27.70
12061;BMP180;6091;51.432;6.880;2022-10-31T11:52:16;101035.00;;;27.70
12061;BMP180;6091;51.432;6.880;2022-10-31T11:54:55;101044.00;;;27.70
12061;BMP180;6091;51.432;6.880;2022-10-31T11:57:41;101052.00;;;27.80
12061;BMP180;6091;51.432;6.880;2022-10-31T12:00:38;101039.00;;;27.70
12061;BMP180;6091;51.432;6.880;2022-10-31T12:05:44;101031.00;;;27.70
12061;BMP180;6091;51.432;6.880;2022-10-31T12:08:14;101023.00;;;27.70
12061;BMP180;6091;51.432;6.880;2022-10-31T12:11:15;101008.00;;;27.70
12061;BMP180;6091;51.432;6.880;2022-10-31T12:14:02;101003.00;;;27.70
12061;BMP180;6091;51.432;6.880;2022-10-31T12:19:38;100992.00;;;27.60
12061;BMP180;6091;51.432;6.880;2022-10-31T12:22:19;100998.00;;;27.60
12061;BMP180;6091;51.432;6.880;2022-10-31T12:28:59;100993.00;;;27.60
12061;BMP180;6091;51.432;6.880;2022-10-31T12:34:43;100986.00;;;27.60
12061;BMP180;6091;51.432;6.880;2022-10-31T12:38:19;100976.00;;;27.60
12061;BMP180;6091;51.432;6.880;2022-10-31T12:41:34;100969.00;;;27.60
12061;BMP180;6091;51.432;6.880;2022-10-31T12:59:10;100924.00;;;27.60
12061;BMP180;6091;51.432;6.880;2022-10-31T13:04:46;100909.00;;;27.70
12061;BMP180;6091;51.432;6.880;2022-10-31T13:07:39;100908.00;;;27.70
12061;BMP180;6091;51.432;6.880;2022-10-31T13:10:21;100905.00;;;27.70
12061;BMP180;6091;51.432;6.880;2022-10-31T13:12:57;100891.00;;;27.70
12061;BMP180;6091;51.432;6.880;2022-10-31T13:15:29;100869.00;;;27.70
12061;BMP180;6091;51.432;6.880;2022-10-31T13:18:11;100873.00;;;27.70
12061;BMP180;6091;51.432;6.880;2022-10-31T13:20:44;100860.00;;;27.70
12061;BMP180;6091;51.432;6.880;2022-10-31T13:23:32;100853.00;;;27.70
12061;BMP180;6091;51.432;6.880;2022-10-31T13:26:50;100846.00;;;27.70
12061;BMP180;6091;51.432;6.880;2022-10-31T13:29:32;100839.00;;;27.70
12061;BMP180;6091;51.432;6.880;2022-10-31T13:32:04;100833.00;;;27.70
12061;BMP180;6091;51.432;6.880;2022-10-31T13:34:36;100827.00;;;27.70
12061;BMP180;6091;51.432;6.880;2022-10-31T13:45:56;100809.00;;;27.60
12061;BMP180;6091;51.432;6.880;2022-10-31T13:48:40;100809.00;;;27.70
12061;BMP180;6091;51.432;6.880;2022-10-31T13:51:11;100813.00;;;27.70
12061;BMP180;6091;51.432;6.880;2022-10-31T13:54:06;100817.00;;;27.70
12061;BMP180;6091;51.432;6.880;2022-10-31T13:56:34;100802.00;;;27.70
12061;BMP180;6091;51.432;6.880;2022-10-31T13:59:26;100799.00;;;27.70
12061;BMP180;6091;51.432;6.880;2022-10-31T14:02:01;100794.00;;;27.70
12061;BMP180;6091;51.432;6.880;2022-10-31T14:04:46;100794.00;;;27.70
12061;BMP180;6091;51.432;6.880;2022-10-31T14:07:19;100790.00;;;27.70
12061;BMP180;6091;51.432;6.880;2022-10-31T14:12:42;100765.00;;;27.60
12061;BMP180;6091;51.432;6.880;2022-10-31T14:15:25;100755.00;;;27.60
12061;BMP180;6091;51.432;6.880;2022-10-31T14:17:58;100764.00;;;27.70
12061;BMP180;6091;51.432;6.880;2022-10-31T14:20:42;100760.00;;;27.70
12061;BMP180;6091;51.432;6.880;2022-10-31T14:28:58;100749.00;;;27.60
12061;BMP180;6091;51.432;6.880;2022-10-31T14:34:34;100755.00;;;27.60
12061;BMP180;6091;51.432;6.880;2022-10-31T14:46:02;100738.00;;;27.60
12061;BMP180;6091;51.432;6.880;2022-10-31T14:51:39;100709.00;;;27.60
12061;BMP180;6091;51.432;6.880;2022-10-31T14:54:19;100713.00;;;27.60
12061;BMP180;6091;51.432;6.880;2022-10-31T14:56:53;100712.00;;;27.60
12061;BMP180;6091;51.432;6.880;2022-10-31T14:59:28;100709.00;;;27.60
12061;BMP180;6091;51.432;6.880;2022-10-31T15:02:11;100698.00;;;27.60
12061;BMP180;6091;51.432;6.880;2022-10-31T15:04:40;100707.00;;;27.60
12061;BMP180;6091;51.432;6.880;2022-10-31T15:07:20;100709.00;;;27.60
12061;BMP180;6091;51.432;6.880;2022-10-31T15:10:00;100700.00;;;27.60
12061;BMP180;6091;51.432;6.880;2022-10-31T15:12:31;100685.00;;;27.60
12061;BMP180;6091;51.432;6.880;2022-10-31T15:15:11;100683.00;;;27.60
12061;BMP180;6091;51.432;6.880;2022-10-31T15:17:45;100674.00;;;27.60
12061;BMP180;6091;51.432;6.880;2022-10-31T15:20:28;100671.00;;;27.60
12061;BMP180;6091;51.432;6.880;2022-10-31T15:22:58;100684.00;;;27.60
12061;BMP180;6091;51.432;6.880;2022-10-31T15:25:32;100674.00;;;27.60
12061;BMP180;6091;51.432;6.880;2022-10-31T15:28:00;100663.00;;;27.60
12061;BMP180;6091;51.432;6.880;2022-10-31T15:30:28;100668.00;;;27.60
12061;BMP180;6091;51.432;6.880;2022-10-31T15:32:55;100666.00;;;27.60
12061;BMP180;6091;51.432;6.880;2022-10-31T15:35:25;100658.00;;;27.60
12061;BMP180;6091;51.432;6.880;2022-10-31T15:37:54;100655.00;;;27.50
12061;BMP180;6091;51.432;6.880;2022-10-31T15:40:25;100663.00;;;27.50
12061;BMP180;6091;51.432;6.880;2022-10-31T15:43:03;100666.00;;;27.50
12061;BMP180;6091;51.432;6.880;2022-10-31T15:45:32;100657.00;;;27.50
12061;BMP180;6091;51.432;6.880;2022-10-31T15:48:15;100653.00;;;27.50
12061;BMP180;6091;51.432;6.880;2022-10-31T15:50:58;100654.00;;;27.50
12061;BMP180;6091;51.432;6.880;2022-10-31T15:53:35;100651.00;;;27.50
12061;BMP180;6091;51.432;6.880;2022-10-31T15:56:07;100650.00;;;27.50
12061;BMP180;6091;51.432;6.880;2022-10-31T15:58:44;100641.00;;;27.50
12061;BMP180;6091;51.432;6.880;2022-10-31T16:01:30;100644.00;;;27.40
12061;BMP180;6091;51.432;6.880;2022-10-31T16:04:24;100640.00;;;27.40
12061;BMP180;6091;51.432;6.880;2022-10-31T16:07:12;100633.00;;;27.40
12061;BMP180;6091;51.432;6.880;2022-10-31T16:10:03;100624.00;;;27.40
12061;BMP180;6091;51.432;6.880;2022-10-31T16:12:44;100616.00;;;27.40
12061;BMP180;6091;51.432;6.880;2022-10-31T16:15:16;100621.00;;;27.40
12061;BMP180;6091;51.432;6.880;2022-10-31T16:17:50;100612.00;;;27.40
12061;BMP180;6091;51.432;6.880;2022-10-31T16:20:28;100616.00;;;27.30
12061;BMP180;6091;51.432;6.880;2022-10-31T16:22:59;100612.00;;;27.30
12061;BMP180;6091;51.432;6.880;2022-10-31T16:25:37;100614.00;;;27.30
12061;BMP180;6091;51.432;6.880;2022-10-31T16:28:16;100611.00;;;27.30
12061;BMP180;6091;51.432;6.880;2022-10-31T16:30:49;100608.00;;;27.30
12061;BMP180;6091;51.432;6.880;2022-10-31T16:33:36;100607.00;;;27.30
12061;BMP180;6091;51.432;6.880;2022-10-31T16:36:35;100607.00;;;27.30
12061;BMP180;6091;51.432;6.880;2022-10-31T16:39:06;100605.00;;;27.30
12061;BMP180;6091;51.432;6.880;2022-10-31T16:41:42;100604.00;;;27.30
12061;BMP180;6091;51.432;6.880;2022-10-31T16:44:21;100592.00;;;27.30
12061;BMP180;6091;51.432;6.880;2022-10-31T16:47:14;100600.00;;;27.30
12061;BMP180;6091;51.432;6.880;2022-10-31T16:49:43;100604.00;;;27.30